createdAt,value
2023-04-12T00:01:11.206Z,73.06
2023-04-12T00:03:54.923Z,72.62
2023-04-12T00:06:38.622Z,73.57
2023-04-12T00:09:22.204Z,74.44
2023-04-12T00:12:06.469Z,73.07
2023-04-12T00:14:50.063Z,74.65
2023-04-12T00:17:33.677Z,74.37
2023-04-12T00:20:18.415Z,73.43
2023-04-12T00:23:02.610Z,73.92
2023-04-12T00:25:46.426Z,76.22
2023-04-12T00:28:30.154Z,76.55
2023-04-12T00:31:13.938Z,75.39
2023-04-12T00:33:57.601Z,74.09
2023-04-12T00:36:43.311Z,74.35
2023-04-12T00:39:27.546Z,75.47
2023-04-12T00:42:14.162Z,73.81
2023-04-12T00:44:57.643Z,73.79
2023-04-12T00:47:45.349Z,73.57
2023-04-12T00:50:29.051Z,72.37
2023-04-12T00:53:18.413Z,73.29
2023-04-12T00:56:03.910Z,74.70
2023-04-12T00:58:47.537Z,74.71
2023-04-12T01:01:32.135Z,74.59
2023-04-12T01:04:16.368Z,74.42
2023-04-12T01:07:22.438Z,74.00
2023-04-12T01:10:30.363Z,74.73
2023-04-12T01:13:26.805Z,73.54
2023-04-12T01:16:41.106Z,73.32
2023-04-12T01:20:22.377Z,74.11
2023-04-12T01:23:19.119Z,75.08
2023-04-12T01:26:28.312Z,74.71
2023-04-12T01:29:19.387Z,75.31
2023-04-12T01:32:05.850Z,74.97
2023-04-12T01:34:52.026Z,75.17
2023-04-12T01:37:37.352Z,74.66
2023-04-12T01:40:21.805Z,76.56
2023-04-12T01:43:13.675Z,76.14
2023-04-12T01:45:57.304Z,76.58
2023-04-12T01:48:54.794Z,75.80
2023-04-12T01:51:47.415Z,75.53
2023-04-12T01:54:41.584Z,74.80
2023-04-12T01:57:27.621Z,75.29
2023-04-12T02:00:12.742Z,75.73
2023-04-12T02:02:59.932Z,74.84
2023-04-12T02:05:44.737Z,75.44
2023-04-12T02:08:28.377Z,76.28
2023-04-12T02:11:12.245Z,75.15
2023-04-12T02:13:56.103Z,75.07
2023-04-12T02:16:42.361Z,74.98
2023-04-12T02:19:26.070Z,75.80
2023-04-12T02:22:10.522Z,76.23
2023-04-12T02:24:54.270Z,76.82
2023-04-12T02:27:37.893Z,75.49
2023-04-12T02:30:21.835Z,77.05
2023-04-12T02:33:09.708Z,76.98
2023-04-12T02:35:54.616Z,76.54
2023-04-12T02:38:38.249Z,75.99
2023-04-12T02:41:24.950Z,75.34
2023-04-12T02:44:08.473Z,74.67
2023-04-12T02:46:53.583Z,74.87
2023-04-12T02:49:37.087Z,75.23
2023-04-12T02:52:21.533Z,75.07
2023-04-12T02:55:20.352Z,75.05
2023-04-12T02:58:03.966Z,76.11
2023-04-12T03:00:50.143Z,74.86
2023-04-12T03:03:39.154Z,75.45
2023-04-12T03:06:52.433Z,76.91
2023-04-12T03:09:42.704Z,75.83
2023-04-12T03:12:26.740Z,76.81
2023-04-12T03:15:29.443Z,76.76
2023-04-12T03:18:13.074Z,75.68
2023-04-12T03:21:05.925Z,75.87
2023-04-12T03:23:49.456Z,76.08
2023-04-12T03:26:35.816Z,75.63
2023-04-12T03:29:29.291Z,75.04
2023-04-12T03:32:12.808Z,75.55
2023-04-12T03:34:58.099Z,75.95
2023-04-12T03:37:43.897Z,76.23
2023-04-12T03:40:28.724Z,75.68
2023-04-12T03:43:14.895Z,77.51
2023-04-12T03:45:58.494Z,77.12
2023-04-12T03:48:43.402Z,76.58
2023-04-12T03:51:27.176Z,77.15
2023-04-12T03:54:17.186Z,76.76
2023-04-12T03:57:14.030Z,76.26
2023-04-12T04:00:01.080Z,76.53
2023-04-12T04:03:03.852Z,76.34
2023-04-12T04:05:53.476Z,76.85
2023-04-12T04:08:38.216Z,77.54
2023-04-12T04:11:21.879Z,77.30
2023-04-12T04:14:10.214Z,76.57
2023-04-12T04:16:54.245Z,77.19
2023-04-12T04:19:39.789Z,76.27
2023-04-12T04:22:23.539Z,76.58
2023-04-12T04:25:09.658Z,76.97
2023-04-12T04:27:58.275Z,76.23
2023-04-12T04:30:46.289Z,75.69
2023-04-12T04:33:33.889Z,75.69
2023-04-12T04:36:19.365Z,75.36
2023-04-12T04:39:09.262Z,76.00
2023-04-12T04:41:57.621Z,76.24
2023-04-12T04:45:02.851Z,76.57
2023-04-12T04:47:50.151Z,77.94
2023-04-12T04:50:33.983Z,76.91
2023-04-12T04:53:21.275Z,76.89
2023-04-12T04:56:05.879Z,77.41
2023-04-12T04:58:52.178Z,76.63
2023-04-12T05:01:38.332Z,76.61
2023-04-12T05:04:22.510Z,77.38
2023-04-12T05:07:06.150Z,77.02
2023-04-12T05:09:50.197Z,77.94
2023-04-12T05:12:36.727Z,78.06
2023-04-12T05:15:21.422Z,78.38
2023-04-12T05:18:05.719Z,79.48
2023-04-12T05:20:49.381Z,79.68
2023-04-12T05:23:41.936Z,80.50
2023-04-12T05:26:27.829Z,79.96
2023-04-12T05:29:12.304Z,80.71
2023-04-12T05:31:59.356Z,81.66
2023-04-12T05:34:44.196Z,81.56
2023-04-12T05:37:28.734Z,81.82
2023-04-12T05:40:12.762Z,81.81
2023-04-12T05:42:56.739Z,81.92
2023-04-12T05:45:42.109Z,83.19
2023-04-12T05:48:26.598Z,84.35
2023-04-12T05:51:12.706Z,85.24
2023-04-12T05:53:56.462Z,85.01
2023-04-12T05:56:41.106Z,85.20
2023-04-12T05:59:24.647Z,84.52
2023-04-12T06:02:09.594Z,84.07
2023-04-12T06:04:55.872Z,84.12
2023-04-12T06:07:42.260Z,83.65
2023-04-12T06:10:25.805Z,84.42
2023-04-12T06:13:10.653Z,84.32
2023-04-12T06:15:58.057Z,84.85
2023-04-12T06:18:41.850Z,83.66
2023-04-12T06:21:25.681Z,85.09
2023-04-12T06:24:09.314Z,84.42
2023-04-12T06:26:53.056Z,85.63
2023-04-12T06:29:37.010Z,85.09
2023-04-12T06:32:20.717Z,85.48
2023-04-12T06:35:08.234Z,85.40
2023-04-12T06:37:51.772Z,84.88
2023-04-12T06:40:35.480Z,84.05
2023-04-12T06:43:20.503Z,85.22
2023-04-12T06:46:04.261Z,84.76
2023-04-12T06:48:47.805Z,85.56
2023-04-12T06:51:31.375Z,84.70
2023-04-12T06:54:14.913Z,84.30
2023-04-12T06:56:58.714Z,83.87
2023-04-12T06:59:42.311Z,82.75
2023-04-12T07:02:25.917Z,82.61
2023-04-12T07:05:09.659Z,81.78
2023-04-12T07:07:54.054Z,80.87
2023-04-12T07:10:38.001Z,80.76
2023-04-12T07:13:22.628Z,80.77
2023-04-12T07:16:08.676Z,79.45
2023-04-12T07:18:52.225Z,79.09
2023-04-12T07:21:35.757Z,78.17
2023-04-12T07:24:19.282Z,77.63
2023-04-12T07:27:02.913Z,77.24
2023-04-12T07:29:46.734Z,76.93
2023-04-12T07:32:30.723Z,75.90
2023-04-12T07:35:14.456Z,75.20
2023-04-12T07:37:58.395Z,74.94
2023-04-12T07:40:41.898Z,74.25
2023-04-12T07:43:27.931Z,74.67
2023-04-12T07:46:11.582Z,73.66
2023-04-12T07:48:55.441Z,73.50
2023-04-12T07:51:39.446Z,73.40
2023-04-12T07:54:23.630Z,72.36
2023-04-12T07:57:09.080Z,71.92
2023-04-12T07:59:52.881Z,70.63
2023-04-12T08:02:37.001Z,69.64
2023-04-12T08:05:20.821Z,68.17
2023-04-12T08:08:04.857Z,68.65
2023-04-12T08:10:49.049Z,68.22
2023-04-12T08:13:34.208Z,66.52
2023-04-12T08:16:17.783Z,66.23
2023-04-12T08:19:01.649Z,65.93
2023-04-12T08:21:45.260Z,64.53
2023-04-12T08:24:28.815Z,63.65
2023-04-12T08:27:14.057Z,63.08
2023-04-12T08:29:58.015Z,61.29
2023-04-12T08:32:41.992Z,60.63
2023-04-12T08:35:25.679Z,60.98
2023-04-12T08:38:09.308Z,59.59
2023-04-12T08:40:52.862Z,59.54
2023-04-12T08:43:43.025Z,56.48
2023-04-12T08:46:27.217Z,54.75
2023-04-12T08:49:13.890Z,53.10
2023-04-12T08:52:03.249Z,51.38
2023-04-12T08:54:47.415Z,51.65
2023-04-12T08:57:34.553Z,53.50
2023-04-12T09:00:20.710Z,52.30
2023-04-12T09:03:05.755Z,50.13
2023-04-12T09:05:49.455Z,49.17
2023-04-12T09:08:33.195Z,48.70
2023-04-12T09:11:28.854Z,48.46
2023-04-12T09:14:26.074Z,47.54
2023-04-12T09:17:27.522Z,47.15
2023-04-12T09:20:17.405Z,46.51
2023-04-12T09:23:03.036Z,45.60
2023-04-12T09:25:53.608Z,46.38
2023-04-12T09:28:37.445Z,45.64
2023-04-12T09:31:21.172Z,45.37
2023-04-12T09:34:09.365Z,44.70
2023-04-12T09:36:54.043Z,44.56
2023-04-12T09:39:38.792Z,43.10
2023-04-12T09:42:33.401Z,43.01
2023-04-12T09:45:26.448Z,43.17
2023-04-12T09:48:21.197Z,42.38
2023-04-12T09:51:05.120Z,41.67
2023-04-12T09:53:50.965Z,40.62
2023-04-12T09:56:39.983Z,41.75
2023-04-12T09:59:28.426Z,42.61
2023-04-12T10:02:17.715Z,40.83
2023-04-12T10:05:02.638Z,39.51
2023-04-12T10:07:47.687Z,40.25
2023-04-12T10:10:31.498Z,38.48
2023-04-12T10:13:17.602Z,38.03
2023-04-12T10:16:01.564Z,39.61
2023-04-12T10:18:47.394Z,39.62
2023-04-12T10:21:31.658Z,38.06
2023-04-12T10:24:17.539Z,37.88
2023-04-12T10:27:03.394Z,37.85
2023-04-12T10:29:47.385Z,37.99
2023-04-12T10:32:33.470Z,37.69
2023-04-12T10:35:19.293Z,36.56
2023-04-12T10:38:05.925Z,37.52
2023-04-12T10:41:17.009Z,37.54
2023-04-12T10:44:29.640Z,35.75
2023-04-12T10:47:13.478Z,37.02
2023-04-12T10:50:30.285Z,37.25
2023-04-12T10:53:20.875Z,37.43
2023-04-12T10:56:32.066Z,37.33
2023-04-12T10:59:16.836Z,37.92
2023-04-12T11:02:12.247Z,36.78
2023-04-12T11:05:10.527Z,36.86
2023-04-12T11:08:29.706Z,35.66
2023-04-12T11:11:36.081Z,35.78
2023-04-12T11:14:31.058Z,36.41
2023-04-12T11:17:15.078Z,36.38
2023-04-12T11:20:01.220Z,37.48
2023-04-12T11:22:44.802Z,37.84
2023-04-12T11:25:29.429Z,35.92
2023-04-12T11:28:28.551Z,35.26
2023-04-12T11:31:15.253Z,36.25
2023-04-12T11:34:00.477Z,35.57
2023-04-12T11:36:53.788Z,35.84
2023-04-12T11:39:43.802Z,34.91
2023-04-12T11:42:29.561Z,34.52
2023-04-12T11:45:20.429Z,34.54
2023-04-12T11:48:09.619Z,33.96
2023-04-12T11:51:07.771Z,34.79
2023-04-12T11:53:57.149Z,34.93
2023-04-12T11:56:42.569Z,34.39
2023-04-12T11:59:35.686Z,35.43
2023-04-12T12:02:23.986Z,33.73
2023-04-12T12:05:09.091Z,34.46
2023-04-12T12:07:54.246Z,33.50
2023-04-12T12:10:55.545Z,35.58
2023-04-12T12:13:53.007Z,35.03
2023-04-12T12:16:36.550Z,34.76
2023-04-12T12:19:30.496Z,34.84
2023-04-12T12:22:20.491Z,34.03
2023-04-12T12:25:04.292Z,33.67
2023-04-12T12:27:51.463Z,33.99
2023-04-12T12:30:40.327Z,34.01
2023-04-12T12:33:35.123Z,34.97
2023-04-12T12:36:36.515Z,35.53
2023-04-12T12:39:22.759Z,34.67
2023-04-12T12:42:06.613Z,36.21
2023-04-12T12:44:50.186Z,35.33
2023-04-12T12:47:33.872Z,36.06
2023-04-12T12:50:19.416Z,35.61
2023-04-12T12:53:05.918Z,35.63
2023-04-12T12:55:49.541Z,36.40
2023-04-12T12:58:33.115Z,36.08
2023-04-12T13:01:16.832Z,36.16
2023-04-12T13:04:00.583Z,36.85
2023-04-12T13:06:44.297Z,36.07
2023-04-12T13:09:27.820Z,36.27
2023-04-12T13:12:11.787Z,36.32
2023-04-12T13:15:00.319Z,37.13
2023-04-12T13:17:53.247Z,36.15
2023-04-12T13:20:37.097Z,36.53
2023-04-12T13:23:20.956Z,36.01
2023-04-12T13:26:04.782Z,34.94
2023-04-12T13:28:48.281Z,35.94
2023-04-12T13:31:32.038Z,35.44
2023-04-12T13:34:16.087Z,34.55
2023-04-12T13:37:00.403Z,36.72
2023-04-12T13:39:44.887Z,36.08
2023-04-12T13:42:28.606Z,36.06
2023-04-12T13:45:12.327Z,36.25
2023-04-12T13:47:56.741Z,35.71
2023-04-12T13:50:40.336Z,37.97
2023-04-12T13:53:23.887Z,36.36
2023-04-12T13:56:07.743Z,36.91
2023-04-12T13:58:51.305Z,35.63
2023-04-12T14:01:34.901Z,36.61
2023-04-12T14:04:18.530Z,37.39
2023-04-12T14:07:02.195Z,36.47
2023-04-12T14:09:45.829Z,37.41
2023-04-12T14:12:29.794Z,37.93
2023-04-12T14:15:14.056Z,37.95
2023-04-12T14:17:57.681Z,38.05
2023-04-12T14:20:41.294Z,38.55
2023-04-12T14:23:26.268Z,38.16
2023-04-12T14:26:16.069Z,38.05
2023-04-12T14:29:00.017Z,38.82
2023-04-12T14:31:43.934Z,38.38
2023-04-12T14:34:27.483Z,38.72
2023-04-12T14:37:11.250Z,38.17
2023-04-12T14:39:54.817Z,38.52
2023-04-12T14:42:38.693Z,39.11
2023-04-12T14:45:22.283Z,38.30
2023-04-12T14:48:06.188Z,39.32
2023-04-12T14:50:49.760Z,38.46
2023-04-12T14:53:34.672Z,38.17
2023-04-12T14:56:25.507Z,38.71
2023-04-12T14:59:09.890Z,39.10
2023-04-12T15:01:53.758Z,39.42
2023-04-12T15:04:37.781Z,40.02
2023-04-12T15:07:21.494Z,39.97
2023-04-12T15:10:06.687Z,39.92
2023-04-12T15:12:50.208Z,41.56
2023-04-12T15:15:33.755Z,42.04
2023-04-12T15:18:17.388Z,41.20
2023-04-12T15:21:03.089Z,42.02
2023-04-12T15:23:50.978Z,42.18
2023-04-12T15:26:36.497Z,42.82
2023-04-12T15:29:22.835Z,44.15
2023-04-12T15:32:08.894Z,44.66
2023-04-12T15:34:53.589Z,47.16
2023-04-12T15:37:39.445Z,48.74
2023-04-12T15:40:23.143Z,49.95
2023-04-12T15:43:06.718Z,51.44
2023-04-12T15:45:53.491Z,52.05
2023-04-12T15:48:38.997Z,52.77
2023-04-12T15:51:24.069Z,54.03
2023-04-12T15:54:07.778Z,55.76
2023-04-12T15:56:51.318Z,56.16
2023-04-12T15:59:35.378Z,56.83
2023-04-12T16:02:19.058Z,58.21
2023-04-12T16:05:02.703Z,60.53
2023-04-12T16:07:46.805Z,61.03
2023-04-12T16:10:30.566Z,60.41
2023-04-12T16:13:14.755Z,62.04
2023-04-12T16:15:58.343Z,61.00
2023-04-12T16:18:42.472Z,62.06
2023-04-12T16:21:26.976Z,62.46
2023-04-12T16:24:11.608Z,61.91
2023-04-12T16:26:55.253Z,61.39
2023-04-12T16:29:40.425Z,60.51
2023-04-12T16:32:24.122Z,63.26
2023-04-12T16:35:08.741Z,62.34
2023-04-12T16:37:52.574Z,64.02
2023-04-12T16:40:36.106Z,64.14
2023-04-12T16:43:19.643Z,62.92
2023-04-12T16:46:07.380Z,64.94
2023-04-12T16:48:51.052Z,63.47
2023-04-12T16:51:36.766Z,63.24
2023-04-12T16:54:21.975Z,63.06
2023-04-12T16:57:06.009Z,63.46
2023-04-12T16:59:50.554Z,63.87
2023-04-12T17:02:34.977Z,65.51
2023-04-12T17:05:21.303Z,64.72
2023-04-12T17:08:05.874Z,64.10
2023-04-12T17:10:49.490Z,65.21
2023-04-12T17:13:33.023Z,67.58
2023-04-12T17:16:16.647Z,64.52
2023-04-12T17:19:00.445Z,65.09
2023-04-12T17:21:44.839Z,66.19
2023-04-12T17:24:29.346Z,65.36
2023-04-12T17:27:12.950Z,64.83
2023-04-12T17:29:56.434Z,64.29
2023-04-12T17:32:40.724Z,65.38
2023-04-12T17:35:24.545Z,66.23
2023-04-12T17:38:08.376Z,65.51
2023-04-12T17:40:52.513Z,64.60
2023-04-12T17:43:36.325Z,66.94
2023-04-12T17:46:20.153Z,66.11
2023-04-12T17:49:05.913Z,65.64
2023-04-12T17:51:49.632Z,64.36
2023-04-12T17:54:37.148Z,65.08
2023-04-12T17:57:21.231Z,65.94
2023-04-12T18:00:09.619Z,66.11
2023-04-12T18:02:56.208Z,66.84
2023-04-12T18:05:40.997Z,66.19
2023-04-12T18:08:25.031Z,66.63
2023-04-12T18:11:09.113Z,66.80
2023-04-12T18:13:52.629Z,68.00
2023-04-12T18:16:37.546Z,66.16
2023-04-12T18:19:21.288Z,66.99
2023-04-12T18:22:04.803Z,66.00
2023-04-12T18:24:48.401Z,65.98
2023-04-12T18:27:32.285Z,65.38
2023-04-12T18:30:17.449Z,64.77
2023-04-12T18:33:03.944Z,66.68
2023-04-12T18:35:47.510Z,66.82
2023-04-12T18:38:35.666Z,67.09
2023-04-12T18:41:19.175Z,67.80
2023-04-12T18:44:03.668Z,69.05
2023-04-12T18:46:47.358Z,69.97
2023-04-12T18:49:31.468Z,68.44
2023-04-12T18:52:19.286Z,69.65
2023-04-12T18:55:08.323Z,68.95
2023-04-12T18:57:51.863Z,68.42
2023-04-12T19:00:35.618Z,68.91
2023-04-12T19:03:19.258Z,70.46
2023-04-12T19:06:04.568Z,71.94
2023-04-12T19:08:49.870Z,72.17
2023-04-12T19:11:36.236Z,72.49
2023-04-12T19:14:21.253Z,73.63
2023-04-12T19:17:04.818Z,75.85
2023-04-12T19:19:48.674Z,73.80
2023-04-12T19:22:32.184Z,75.08
2023-04-12T19:25:18.225Z,74.13
2023-04-12T19:28:03.112Z,75.71
2023-04-12T19:30:46.823Z,73.89
2023-04-12T19:33:30.406Z,74.56
2023-04-12T19:36:14.278Z,72.48
2023-04-12T19:38:58.027Z,72.96
2023-04-12T19:41:41.702Z,72.97
2023-04-12T19:44:26.157Z,72.51
2023-04-12T19:47:09.724Z,72.57
2023-04-12T19:49:53.352Z,71.89
2023-04-12T19:52:36.914Z,71.72
2023-04-12T19:55:21.635Z,71.48
2023-04-12T19:58:05.178Z,73.34
2023-04-12T20:00:52.373Z,71.95
2023-04-12T20:03:35.969Z,73.96
2023-04-12T20:06:19.722Z,72.55
2023-04-12T20:09:03.420Z,72.91
2023-04-12T20:11:47.081Z,76.19
2023-04-12T20:14:32.466Z,75.55
2023-04-12T20:17:16.393Z,77.29
2023-04-12T20:19:59.959Z,75.69
2023-04-12T20:22:51.971Z,77.96
2023-04-12T20:25:37.848Z,75.20
2023-04-12T20:28:21.459Z,75.08
2023-04-12T20:31:06.281Z,75.64
2023-04-12T20:33:50.112Z,75.21
2023-04-12T20:36:33.712Z,74.66
2023-04-12T20:39:17.915Z,77.32
2023-04-12T20:42:01.552Z,76.19
2023-04-12T20:44:45.788Z,79.36
2023-04-12T20:47:29.370Z,78.43
2023-04-12T20:50:13.017Z,79.58
2023-04-12T20:52:56.538Z,79.72
2023-04-12T20:55:40.365Z,81.38
2023-04-12T20:58:26.760Z,83.38
2023-04-12T21:01:15.168Z,81.81
2023-04-12T21:04:06.004Z,82.69
2023-04-12T21:06:50.870Z,81.40
2023-04-12T21:09:34.415Z,80.60
2023-04-12T21:12:18.358Z,82.53
2023-04-12T21:15:03.484Z,81.93
2023-04-12T21:17:47.230Z,82.12
2023-04-12T21:20:30.809Z,82.34
2023-04-12T21:23:18.456Z,83.99
2023-04-12T21:26:02.691Z,85.18
2023-04-12T21:28:46.256Z,84.97
2023-04-12T21:31:30.738Z,85.15
2023-04-12T21:34:14.823Z,84.84
2023-04-12T21:37:02.823Z,83.89
2023-04-12T21:39:47.604Z,87.18
2023-04-12T21:42:31.269Z,85.65
2023-04-12T21:45:15.133Z,85.10
2023-04-12T21:47:58.655Z,85.31
2023-04-12T21:50:42.272Z,86.09
2023-04-12T21:53:25.947Z,87.33
2023-04-12T21:56:10.116Z,88.51
2023-04-12T21:58:53.727Z,90.70
2023-04-12T22:01:38.235Z,87.58
2023-04-12T22:04:22.344Z,86.43
2023-04-12T22:07:10.152Z,86.21
2023-04-12T22:09:53.968Z,84.78
2023-04-12T22:12:38.342Z,83.88
2023-04-12T22:15:22.311Z,84.88
2023-04-12T22:18:06.430Z,85.12
2023-04-12T22:20:50.048Z,85.31
2023-04-12T22:23:37.007Z,85.05
2023-04-12T22:26:20.589Z,87.33
2023-04-12T22:29:04.972Z,86.98
2023-04-12T22:31:48.536Z,87.12
2023-04-12T22:34:32.655Z,89.66
2023-04-12T22:37:16.358Z,86.80
2023-04-12T22:40:02.388Z,86.78
2023-04-12T22:42:47.419Z,88.20
2023-04-12T22:45:31.556Z,88.29
2023-04-12T22:48:16.208Z,88.71
2023-04-12T22:51:01.302Z,89.49
2023-04-12T22:53:44.889Z,87.89
2023-04-12T22:56:29.335Z,87.97
2023-04-12T22:59:14.643Z,87.21
2023-04-12T23:01:58.252Z,88.05
2023-04-12T23:04:43.989Z,88.73
2023-04-12T23:07:30.265Z,87.60
2023-04-12T23:10:14.041Z,87.27
2023-04-12T23:12:57.600Z,86.67
2023-04-12T23:15:45.411Z,86.18
2023-04-12T23:18:29.202Z,87.17
2023-04-12T23:21:12.701Z,86.76
2023-04-12T23:23:56.758Z,87.33
2023-04-12T23:26:40.609Z,87.35
2023-04-12T23:29:25.905Z,87.19
2023-04-12T23:32:09.408Z,85.90
2023-04-12T23:34:54.902Z,86.26
2023-04-12T23:37:41.143Z,85.81
2023-04-12T23:40:28.367Z,84.68
2023-04-12T23:43:11.843Z,84.86
2023-04-12T23:45:56.729Z,85.39
2023-04-12T23:48:40.643Z,86.63
2023-04-12T23:51:24.187Z,85.43
2023-04-12T23:54:07.785Z,86.07
2023-04-12T23:56:51.281Z,86.51
2023-04-12T23:59:34.800Z,86.94
